If you wish to contribute or participate in the discussions about articles you are invited to join SKYbrary as a registered user

 Actions

Yoron Airport

From SKYbrary Wiki

RORY
Airport
ICAO: RORY – IATA: RNJ
Summary
Name Yoron Airport
Region Asia and Pacific
Territory Japan JP.gif
Location Yoron, Kagoshima Prefecture
Serving Yoronjima
Elevation 14.326 m
47 ft14.326 m
Coordinates 27° 2' 34.79" N, 128° 24' 0.25" E
Runways
Designator Length Width Surface ROPS
14/32 1323 m4,340.551 ft
30 m98.425 ft
ASP no/no


METAR
Observation RORY 220200Z AUTO 08009KT 050V110 9999 BKN015 25/21 Q1012
Station Yoron Island
Date/Time 22 April 2019 02:00:00
Wind direction 80°
Wind speed 09 kts
Lowest cloud amount broken clouds
Temperature 25°C
Dew point 21°C
Humidity 78%
QNH 1012 hPa
Weather condition n/a

Yoron Airport is an airport located on Yoronjima in Kagoshima Prefecture Japan.

Climatology

Humid Sub-tropical climate (Köppen climate classification Cfa)

Maps

Terrain

Loading map...

Airport Layout

Loading map...


Accidents & Serious Incidents at or in vicinity of RORY

None on SKYbrary